MYJ weather

Matsuyama Airport
Matsuyama, Ehime Prefecture, Japan

Public forecast

Using degrees Celsius for public forecast. Weather courtesy of forecast.io.

METAR (pilot weather report)

Report is more than 6 hours old.

Retrieved 2019/05/24 12:00 UTC (7 hours ago):

RJOM 241200Z 13005KT CAVOK 25/11 Q1014

TAF (pilot weather forecast)

Retrieved 2019/05/24 18:30 UTC (18 minutes ago):

TAF RJOM 241706Z 2418/2600 12007KT CAVOK BECMG 2423/2501 26005KT BECMG 2503/2505 20006KT